createdAt,value
2022-11-24T00:00:08.229Z,8.80
2022-11-24T00:00:20.030Z,8.90
2022-11-24T00:00:31.777Z,8.90
2022-11-24T00:00:43.647Z,8.90
2022-11-24T00:01:01.690Z,8.90
2022-11-24T00:01:18.797Z,8.90
2022-11-24T00:01:31.378Z,8.90
2022-11-24T00:01:43.546Z,8.90
2022-11-24T00:01:55.474Z,8.90
2022-11-24T00:02:07.323Z,8.90
2022-11-24T00:02:19.278Z,8.90
2022-11-24T00:02:31.362Z,9.00
2022-11-24T00:02:43.292Z,9.00
2022-11-24T00:02:55.087Z,9.00
2022-11-24T00:03:07.037Z,9.00
2022-11-24T00:03:19.151Z,9.00
2022-11-24T00:03:31.063Z,9.00
2022-11-24T00:03:44.614Z,9.00
2022-11-24T00:04:01.880Z,9.10
2022-11-24T00:04:13.747Z,9.00
2022-11-24T00:04:25.782Z,9.00
2022-11-24T00:04:37.760Z,9.00
2022-11-24T00:04:49.442Z,9.00
2022-11-24T00:05:01.320Z,9.00
2022-11-24T00:05:13.368Z,9.00
2022-11-24T00:05:25.331Z,9.00
2022-11-24T00:05:38.627Z,9.00
2022-11-24T00:05:50.490Z,9.00
2022-11-24T00:06:07.666Z,9.00
2022-11-24T00:06:19.408Z,9.00
2022-11-24T00:06:32.677Z,9.00
2022-11-24T00:06:44.458Z,9.00
2022-11-24T00:06:56.384Z,9.00
2022-11-24T00:07:08.185Z,9.00
2022-11-24T00:07:20.000Z,8.90
2022-11-24T00:07:31.885Z,8.90
2022-11-24T00:07:44.033Z,9.00
2022-11-24T00:07:55.836Z,9.00
2022-11-24T00:08:07.562Z,8.90
2022-11-24T00:08:19.304Z,8.90
2022-11-24T00:08:31.096Z,8.90
2022-11-24T00:08:44.828Z,8.90
2022-11-24T00:08:56.789Z,8.90
2022-11-24T00:09:08.550Z,8.90
2022-11-24T00:09:20.276Z,8.90
2022-11-24T00:09:32.186Z,8.90
2022-11-24T00:09:43.940Z,8.90
2022-11-24T00:09:55.816Z,9.00
2022-11-24T00:10:08.021Z,8.90
2022-11-24T00:10:19.902Z,8.90
2022-11-24T00:10:31.786Z,8.90
2022-11-24T00:10:43.658Z,8.90
2022-11-24T00:10:55.388Z,8.90
2022-11-24T00:11:14.627Z,9.00
2022-11-24T00:11:28.877Z,8.90
2022-11-24T00:11:40.637Z,8.90
2022-11-24T00:11:52.545Z,8.90
2022-11-24T00:12:04.587Z,8.90
2022-11-24T00:12:16.317Z,8.90
2022-11-24T00:12:28.191Z,8.90
2022-11-24T00:12:39.912Z,9.00
2022-11-24T00:12:51.661Z,8.90
2022-11-24T00:13:03.475Z,9.00
2022-11-24T00:13:15.275Z,8.90
2022-11-24T00:13:27.435Z,8.90
2022-11-24T00:13:39.344Z,8.90
2022-11-24T00:13:51.212Z,8.90
2022-11-24T00:14:03.410Z,8.90
2022-11-24T00:14:15.126Z,8.90
2022-11-24T00:14:27.223Z,8.90
2022-11-24T00:14:38.993Z,8.90
2022-11-24T00:14:50.708Z,8.90
2022-11-24T00:15:02.527Z,8.80
2022-11-24T00:15:14.436Z,8.80
2022-11-24T00:15:26.221Z,8.80
2022-11-24T00:15:38.150Z,8.80
2022-11-24T00:15:50.045Z,8.80
2022-11-24T00:16:13.455Z,8.80
2022-11-24T00:16:30.108Z,8.80
2022-11-24T00:16:42.566Z,8.90
2022-11-24T00:16:54.548Z,8.90
2022-11-24T00:17:06.518Z,8.90
2022-11-24T00:17:18.273Z,8.90
2022-11-24T00:17:29.971Z,8.90
2022-11-24T00:17:41.714Z,8.90
2022-11-24T00:17:53.468Z,8.80
2022-11-24T00:18:05.377Z,8.90
2022-11-24T00:18:17.103Z,8.80
2022-11-24T00:18:28.813Z,8.90
2022-11-24T00:18:41.322Z,8.80
2022-11-24T00:18:56.234Z,8.90
2022-11-24T00:19:09.197Z,8.90
2022-11-24T00:19:21.113Z,8.90
2022-11-24T00:19:32.850Z,8.90
2022-11-24T00:19:44.575Z,8.90
2022-11-24T00:19:56.379Z,9.00
2022-11-24T00:20:09.236Z,8.90
2022-11-24T00:20:21.008Z,8.90
2022-11-24T00:20:32.892Z,8.90
2022-11-24T00:20:52.192Z,8.90
2022-11-24T00:21:04.041Z,8.90
2022-11-24T00:21:17.092Z,8.90
2022-11-24T00:21:30.011Z,8.90
2022-11-24T00:21:41.767Z,8.90
2022-11-24T00:21:53.677Z,8.90
2022-11-24T00:22:05.443Z,8.80
2022-11-24T00:22:17.157Z,8.90
2022-11-24T00:22:28.924Z,8.80
2022-11-24T00:22:40.794Z,8.80
2022-11-24T00:22:52.528Z,8.90
2022-11-24T00:23:04.238Z,8.90
2022-11-24T00:23:16.121Z,8.90
2022-11-24T00:23:27.899Z,9.00
2022-11-24T00:23:39.678Z,8.90
2022-11-24T00:23:51.922Z,9.00
2022-11-24T00:24:04.289Z,9.00
2022-11-24T00:24:16.261Z,8.90
2022-11-24T00:24:28.030Z,8.90
2022-11-24T00:24:39.739Z,8.90
2022-11-24T00:24:51.624Z,8.90
2022-11-24T00:25:03.599Z,8.90
2022-11-24T00:25:15.514Z,9.00
2022-11-24T00:25:27.252Z,8.90
2022-11-24T00:25:39.118Z,8.90
2022-11-24T00:25:51.005Z,8.90
2022-11-24T00:26:10.912Z,8.90
2022-11-24T00:26:25.041Z,8.90
2022-11-24T00:26:39.642Z,8.90
2022-11-24T00:26:51.396Z,8.90
2022-11-24T00:27:03.289Z,8.90
2022-11-24T00:27:15.255Z,8.90
2022-11-24T00:27:27.136Z,8.90
2022-11-24T00:27:39.046Z,8.90
2022-11-24T00:27:52.269Z,8.90
2022-11-24T00:28:04.297Z,8.90
2022-11-24T00:28:16.196Z,8.90
2022-11-24T00:28:27.914Z,8.90
2022-11-24T00:28:39.992Z,8.90
2022-11-24T00:28:54.986Z,8.90
2022-11-24T00:29:07.925Z,8.90
2022-11-24T00:29:19.749Z,8.90
2022-11-24T00:29:31.466Z,8.90
2022-11-24T00:29:43.250Z,8.90
2022-11-24T00:29:54.915Z,8.90
2022-11-24T00:30:07.600Z,8.90
2022-11-24T00:30:19.325Z,8.90
2022-11-24T00:30:31.065Z,8.90
2022-11-24T00:30:42.983Z,8.90
2022-11-24T00:30:54.951Z,8.90
2022-11-24T00:31:23.422Z,8.90
2022-11-24T00:31:40.223Z,8.90
2022-11-24T00:31:52.169Z,8.90
2022-11-24T00:32:06.026Z,8.90
2022-11-24T00:32:17.745Z,8.80
2022-11-24T00:32:30.024Z,8.90
2022-11-24T00:32:41.748Z,8.80
2022-11-24T00:32:53.481Z,8.80
2022-11-24T00:33:05.378Z,8.80
2022-11-24T00:33:17.223Z,8.80
2022-11-24T00:33:29.099Z,8.80
2022-11-24T00:33:40.981Z,8.80
2022-11-24T00:33:56.788Z,8.80
2022-11-24T00:34:11.838Z,8.80
2022-11-24T00:34:23.837Z,8.70
2022-11-24T00:34:35.984Z,8.70
2022-11-24T00:34:47.841Z,8.70
2022-11-24T00:34:59.556Z,8.70
2022-11-24T00:35:11.466Z,8.70
2022-11-24T00:35:23.317Z,8.60
2022-11-24T00:35:35.007Z,8.60
2022-11-24T00:35:54.562Z,8.60
2022-11-24T00:36:06.427Z,8.60
2022-11-24T00:36:19.069Z,8.60
2022-11-24T00:36:32.258Z,8.60
2022-11-24T00:36:44.008Z,8.50
2022-11-24T00:36:55.885Z,8.50
2022-11-24T00:37:07.764Z,8.50
2022-11-24T00:37:19.420Z,8.50
2022-11-24T00:37:31.292Z,8.50
2022-11-24T00:37:43.154Z,8.50
2022-11-24T00:37:55.948Z,8.50
2022-11-24T00:38:07.843Z,8.50
2022-11-24T00:38:19.720Z,8.40
2022-11-24T00:38:31.448Z,8.40
2022-11-24T00:38:43.760Z,8.40
2022-11-24T00:38:57.493Z,8.40
2022-11-24T00:39:13.921Z,8.40
2022-11-24T00:39:25.862Z,8.40
2022-11-24T00:39:37.558Z,8.40
2022-11-24T00:39:49.327Z,8.40
2022-11-24T00:40:01.129Z,8.40
2022-11-24T00:40:13.597Z,8.50
2022-11-24T00:40:25.383Z,8.50
2022-11-24T00:40:37.110Z,8.50
2022-11-24T00:40:49.025Z,8.40
2022-11-24T00:41:00.925Z,8.40
2022-11-24T00:41:13.059Z,8.40
2022-11-24T00:41:25.454Z,8.40
2022-11-24T00:41:37.641Z,8.40
2022-11-24T00:41:49.454Z,8.50
2022-11-24T00:42:02.160Z,8.50
2022-11-24T00:42:14.368Z,8.50
2022-11-24T00:42:26.065Z,8.50
2022-11-24T00:42:37.798Z,8.40
2022-11-24T00:42:49.709Z,8.50
2022-11-24T00:43:01.626Z,8.50
2022-11-24T00:43:13.603Z,8.40
2022-11-24T00:43:25.480Z,8.40
2022-11-24T00:43:37.238Z,8.40
2022-11-24T00:43:49.130Z,8.40
2022-11-24T00:44:00.873Z,8.40
2022-11-24T00:44:12.573Z,8.40
2022-11-24T00:44:24.446Z,8.40
2022-11-24T00:44:36.157Z,8.40
2022-11-24T00:44:48.152Z,8.40
2022-11-24T00:45:00.011Z,8.40
2022-11-24T00:45:14.056Z,8.50
2022-11-24T00:45:26.128Z,8.40
2022-11-24T00:45:37.913Z,8.40
2022-11-24T00:45:49.822Z,8.40
2022-11-24T00:46:01.912Z,8.40
2022-11-24T00:46:13.879Z,8.40
2022-11-24T00:46:26.253Z,8.50
2022-11-24T00:46:38.549Z,8.50
2022-11-24T00:46:50.500Z,8.50
2022-11-24T00:47:02.593Z,8.40
2022-11-24T00:47:14.491Z,8.40
2022-11-24T00:47:26.343Z,8.40
2022-11-24T00:47:38.223Z,8.40
2022-11-24T00:47:49.953Z,8.40
2022-11-24T00:48:01.686Z,8.40
2022-11-24T00:48:13.621Z,8.40
2022-11-24T00:48:25.350Z,8.40
2022-11-24T00:48:37.127Z,8.40
2022-11-24T00:48:48.920Z,8.50
2022-11-24T00:49:00.874Z,8.50
2022-11-24T00:49:12.659Z,8.50
2022-11-24T00:49:24.347Z,8.50
2022-11-24T00:49:36.357Z,8.50
2022-11-24T00:49:48.407Z,8.40
2022-11-24T00:50:00.147Z,8.50
2022-11-24T00:50:12.055Z,8.50
2022-11-24T00:50:23.926Z,8.40
2022-11-24T00:50:35.772Z,8.50
2022-11-24T00:51:09.482Z,8.50
2022-11-24T00:51:23.720Z,8.50
2022-11-24T00:51:35.604Z,8.50
2022-11-24T00:51:47.540Z,8.50
2022-11-24T00:51:59.306Z,8.50
2022-11-24T00:52:11.044Z,8.50
2022-11-24T00:52:22.806Z,8.50
2022-11-24T00:52:34.646Z,8.50
2022-11-24T00:52:46.433Z,8.60
2022-11-24T00:52:58.195Z,8.60
2022-11-24T00:53:10.020Z,8.60
2022-11-24T00:53:21.952Z,8.60
2022-11-24T00:53:33.821Z,8.60
2022-11-24T00:53:48.491Z,8.60
2022-11-24T00:54:01.064Z,8.60
2022-11-24T00:54:12.874Z,8.60
2022-11-24T00:54:24.589Z,8.60
2022-11-24T00:54:36.318Z,8.50
2022-11-24T00:54:48.100Z,8.50
2022-11-24T00:54:59.854Z,8.50
2022-11-24T00:55:11.554Z,8.40
2022-11-24T00:55:23.499Z,8.50
2022-11-24T00:55:35.407Z,8.50
2022-11-24T00:55:51.008Z,8.50
2022-11-24T00:56:06.078Z,8.40
2022-11-24T00:56:17.851Z,8.50
2022-11-24T00:56:29.862Z,8.50
2022-11-24T00:56:41.596Z,8.40
2022-11-24T00:56:53.479Z,8.40
2022-11-24T00:57:05.614Z,8.50
2022-11-24T00:57:17.377Z,8.50
2022-11-24T00:57:29.086Z,8.50
2022-11-24T00:57:40.843Z,8.50
2022-11-24T00:57:52.844Z,8.50
2022-11-24T00:58:04.564Z,8.50
2022-11-24T00:58:16.289Z,8.40
2022-11-24T00:58:28.012Z,8.40
2022-11-24T00:58:39.970Z,8.40
2022-11-24T00:58:52.296Z,8.40
2022-11-24T00:59:04.424Z,8.40
2022-11-24T00:59:16.326Z,8.40
2022-11-24T00:59:28.247Z,8.40
2022-11-24T00:59:39.989Z,8.40
2022-11-24T00:59:51.861Z,8.40
2022-11-24T01:00:04.434Z,8.40
2022-11-24T01:00:17.360Z,8.40
2022-11-24T01:00:29.578Z,8.40
2022-11-24T01:00:41.328Z,8.40
2022-11-24T01:00:53.261Z,8.40
2022-11-24T01:01:13.890Z,8.40
2022-11-24T01:01:28.296Z,8.40
2022-11-24T01:01:40.310Z,8.40
2022-11-24T01:01:52.084Z,8.40
2022-11-24T01:02:04.005Z,8.40
2022-11-24T01:02:15.838Z,8.40
2022-11-24T01:02:27.644Z,8.40
2022-11-24T01:02:39.688Z,8.40
2022-11-24T01:02:52.515Z,8.30
2022-11-24T01:03:04.415Z,8.30
2022-11-24T01:03:16.619Z,8.30
2022-11-24T01:03:28.317Z,8.30
2022-11-24T01:03:40.129Z,8.30
2022-11-24T01:03:52.029Z,8.30
2022-11-24T01:04:04.151Z,8.30
2022-11-24T01:04:15.944Z,8.30
2022-11-24T01:04:27.869Z,8.30
2022-11-24T01:04:39.980Z,8.30
2022-11-24T01:04:51.689Z,8.30
2022-11-24T01:05:03.662Z,8.30
2022-11-24T01:05:15.539Z,8.30
2022-11-24T01:05:27.339Z,8.30
2022-11-24T01:05:39.388Z,8.30
2022-11-24T01:05:51.310Z,8.40
2022-11-24T01:06:07.600Z,8.30
2022-11-24T01:06:22.071Z,8.40
2022-11-24T01:06:35.656Z,8.40
2022-11-24T01:06:47.548Z,8.40
2022-11-24T01:06:59.277Z,8.40
2022-11-24T01:07:11.271Z,8.40
2022-11-24T01:07:23.258Z,8.40
2022-11-24T01:07:35.903Z,8.40
2022-11-24T01:07:48.003Z,8.40
2022-11-24T01:07:59.761Z,8.40
2022-11-24T01:08:11.629Z,8.40
2022-11-24T01:08:23.502Z,8.40
2022-11-24T01:08:37.661Z,8.40
2022-11-24T01:08:49.433Z,8.40
2022-11-24T01:09:01.420Z,8.30
2022-11-24T01:09:13.789Z,8.30
2022-11-24T01:09:25.541Z,8.30
2022-11-24T01:09:37.789Z,8.30
2022-11-24T01:09:49.526Z,8.30
2022-11-24T01:10:01.312Z,8.30
2022-11-24T01:10:13.048Z,8.40
2022-11-24T01:10:24.757Z,8.40
2022-11-24T01:10:36.701Z,8.30
2022-11-24T01:10:48.630Z,8.30
2022-11-24T01:11:14.748Z,8.30
2022-11-24T01:11:29.427Z,8.30
2022-11-24T01:11:59.661Z,8.30
2022-11-24T01:12:11.600Z,8.30
2022-11-24T01:12:23.403Z,8.30
2022-11-24T01:12:35.574Z,8.30
2022-11-24T01:12:47.813Z,8.30
2022-11-24T01:13:00.298Z,8.30
2022-11-24T01:13:13.543Z,8.30
2022-11-24T01:13:25.317Z,8.20
2022-11-24T01:13:37.834Z,8.20
2022-11-24T01:13:53.204Z,8.20
2022-11-24T01:14:05.208Z,8.20
2022-11-24T01:14:16.909Z,8.20
2022-11-24T01:14:28.682Z,8.20
2022-11-24T01:14:40.641Z,8.20
2022-11-24T01:14:52.483Z,8.20
2022-11-24T01:15:04.718Z,8.20
2022-11-24T01:15:16.720Z,8.20
2022-11-24T01:15:30.159Z,8.20
2022-11-24T01:15:42.166Z,8.20
2022-11-24T01:15:53.926Z,8.20
2022-11-24T01:16:06.287Z,8.20
2022-11-24T01:16:24.040Z,8.20
2022-11-24T01:16:35.991Z,8.20
2022-11-24T01:16:47.699Z,8.20
2022-11-24T01:16:59.508Z,8.20
2022-11-24T01:17:11.479Z,8.20
2022-11-24T01:17:23.448Z,8.20
2022-11-24T01:17:35.344Z,8.20
2022-11-24T01:17:47.145Z,8.20
2022-11-24T01:17:59.028Z,8.20
2022-11-24T01:18:10.862Z,8.20
2022-11-24T01:18:22.579Z,8.20
2022-11-24T01:18:34.297Z,8.20
2022-11-24T01:18:46.503Z,8.20
2022-11-24T01:18:58.495Z,8.20
2022-11-24T01:19:10.361Z,8.20
2022-11-24T01:19:22.640Z,8.20
2022-11-24T01:19:34.561Z,8.20
2022-11-24T01:19:47.208Z,8.20
2022-11-24T01:19:59.096Z,8.20
2022-11-24T01:20:11.364Z,8.20
2022-11-24T01:20:23.644Z,8.20
2022-11-24T01:20:36.625Z,8.20
2022-11-24T01:20:48.350Z,8.20
2022-11-24T01:21:09.626Z,8.20
2022-11-24T01:21:22.173Z,8.20
2022-11-24T01:21:34.060Z,8.20
2022-11-24T01:21:46.043Z,8.20
2022-11-24T01:21:57.780Z,8.20
2022-11-24T01:22:09.695Z,8.20
2022-11-24T01:22:21.591Z,8.20
2022-11-24T01:22:34.915Z,8.20
2022-11-24T01:22:48.905Z,8.20
2022-11-24T01:23:01.058Z,8.20
2022-11-24T01:23:12.987Z,8.10
2022-11-24T01:23:24.788Z,8.10
2022-11-24T01:23:36.669Z,8.10
2022-11-24T01:23:48.665Z,8.10
2022-11-24T01:24:00.409Z,8.10
2022-11-24T01:24:12.333Z,8.10
2022-11-24T01:24:24.213Z,8.10
2022-11-24T01:24:36.089Z,8.10
2022-11-24T01:24:48.152Z,8.10
2022-11-24T01:25:00.043Z,8.10
2022-11-24T01:25:11.979Z,8.10
2022-11-24T01:25:23.885Z,8.10
2022-11-24T01:25:39.879Z,8.00
2022-11-24T01:25:51.598Z,8.00
2022-11-24T01:26:07.746Z,8.00
2022-11-24T01:26:21.573Z,8.00
2022-11-24T01:26:33.291Z,8.00
2022-11-24T01:26:45.043Z,7.90
2022-11-24T01:26:56.734Z,7.90
2022-11-24T01:27:08.515Z,7.90
2022-11-24T01:27:20.382Z,7.90
2022-11-24T01:27:32.193Z,7.90
2022-11-24T01:27:44.089Z,7.90
2022-11-24T01:27:55.874Z,7.90
2022-11-24T01:28:07.837Z,7.90
2022-11-24T01:28:19.596Z,7.90
2022-11-24T01:28:31.779Z,7.90
2022-11-24T01:28:46.950Z,8.00
2022-11-24T01:28:59.507Z,8.00
2022-11-24T01:29:12.016Z,8.00
2022-11-24T01:29:23.750Z,8.00
2022-11-24T01:29:35.481Z,8.00
2022-11-24T01:29:47.254Z,8.00
2022-11-24T01:29:58.999Z,8.00
2022-11-24T01:30:11.427Z,8.00
2022-11-24T01:30:23.185Z,8.00
2022-11-24T01:30:34.916Z,8.00
2022-11-24T01:30:56.121Z,8.00
2022-11-24T01:31:08.282Z,8.00
2022-11-24T01:31:20.250Z,8.00
2022-11-24T01:31:32.815Z,8.00
2022-11-24T01:31:44.645Z,8.00
2022-11-24T01:31:56.526Z,8.00
2022-11-24T01:32:08.231Z,8.00
2022-11-24T01:32:19.965Z,7.90
2022-11-24T01:32:33.331Z,8.00
2022-11-24T01:32:45.068Z,7.90
2022-11-24T01:32:56.948Z,7.90
2022-11-24T01:33:08.927Z,8.00
2022-11-24T01:33:20.803Z,7.90
2022-11-24T01:33:33.768Z,7.90
2022-11-24T01:33:45.520Z,7.90
2022-11-24T01:33:57.405Z,8.00
2022-11-24T01:34:09.338Z,7.90
2022-11-24T01:34:21.736Z,8.00
2022-11-24T01:34:33.845Z,8.00
2022-11-24T01:34:45.697Z,8.00
2022-11-24T01:34:57.415Z,8.00
2022-11-24T01:35:09.607Z,8.00
2022-11-24T01:35:21.495Z,8.00
2022-11-24T01:35:33.381Z,8.00
2022-11-24T01:35:45.122Z,8.00
2022-11-24T01:35:58.322Z,8.00
2022-11-24T01:36:10.149Z,8.00
2022-11-24T01:36:22.401Z,8.00
2022-11-24T01:36:34.507Z,8.00
2022-11-24T01:36:46.322Z,8.00
2022-11-24T01:36:58.216Z,8.00
2022-11-24T01:37:09.974Z,7.90
2022-11-24T01:37:22.217Z,8.00
2022-11-24T01:37:34.038Z,7.90
2022-11-24T01:37:46.259Z,8.00
2022-11-24T01:37:58.246Z,7.90
2022-11-24T01:38:09.980Z,7.90
2022-11-24T01:38:22.158Z,7.90
2022-11-24T01:38:34.104Z,7.90
2022-11-24T01:38:45.844Z,8.00
2022-11-24T01:38:57.700Z,8.00
2022-11-24T01:39:09.574Z,8.00
2022-11-24T01:39:21.440Z,8.00
2022-11-24T01:39:33.438Z,8.00
2022-11-24T01:39:45.314Z,8.00
2022-11-24T01:39:57.199Z,8.00
2022-11-24T01:40:10.294Z,8.00
2022-11-24T01:40:22.191Z,8.00
2022-11-24T01:40:33.924Z,8.00
2022-11-24T01:40:45.869Z,8.00
2022-11-24T01:41:12.533Z,8.00
2022-11-24T01:41:25.053Z,8.00
2022-11-24T01:41:36.782Z,8.00
2022-11-24T01:41:48.532Z,8.00
2022-11-24T01:42:03.208Z,8.00
2022-11-24T01:42:14.952Z,8.00
2022-11-24T01:42:26.847Z,8.00
2022-11-24T01:42:50.511Z,8.00
2022-11-24T01:43:02.371Z,8.00
2022-11-24T01:43:20.463Z,8.00
2022-11-24T01:43:32.525Z,8.00
2022-11-24T01:43:44.781Z,8.00
2022-11-24T01:43:56.871Z,8.00
2022-11-24T01:44:26.192Z,8.00
2022-11-24T01:44:38.133Z,8.00
2022-11-24T01:45:28.375Z,8.00
2022-11-24T01:45:41.238Z,8.00
2022-11-24T01:45:53.142Z,8.00
2022-11-24T01:46:34.003Z,8.00
2022-11-24T01:46:46.854Z,8.00
2022-11-24T01:47:06.132Z,8.00
2022-11-24T01:47:38.781Z,8.00
2022-11-24T01:47:50.833Z,8.10
2022-11-24T01:48:05.548Z,8.10
2022-11-24T01:48:34.120Z,8.10
2022-11-24T01:48:52.149Z,8.10
2022-11-24T01:49:15.119Z,8.10
2022-11-24T01:49:45.685Z,8.10
2022-11-24T01:49:58.896Z,8.20
2022-11-24T01:50:14.304Z,8.20
2022-11-24T01:50:26.201Z,8.20
2022-11-24T01:50:38.108Z,8.20
2022-11-24T01:51:06.875Z,8.20
2022-11-24T01:51:25.862Z,8.20
2022-11-24T01:51:46.015Z,8.20
2022-11-24T01:52:06.591Z,8.20
2022-11-24T01:52:22.931Z,8.20
2022-11-24T01:52:41.534Z,8.30
2022-11-24T01:52:54.222Z,8.30
2022-11-24T01:53:06.164Z,8.30
2022-11-24T01:53:18.934Z,8.30
2022-11-24T01:53:30.688Z,8.30
2022-11-24T01:53:44.380Z,8.30
2022-11-24T01:54:00.948Z,8.30
2022-11-24T01:54:21.550Z,8.30
2022-11-24T01:54:42.251Z,8.30
2022-11-24T01:54:56.405Z,8.30
2022-11-24T01:55:16.568Z,8.30
2022-11-24T01:55:33.453Z,8.30
2022-11-24T01:55:45.175Z,8.30
2022-11-24T01:55:57.172Z,8.20
2022-11-24T01:56:09.134Z,8.20
2022-11-24T01:56:20.931Z,8.30
2022-11-24T01:56:32.675Z,8.20
2022-11-24T01:56:46.195Z,8.30
2022-11-24T01:57:03.093Z,8.30
2022-11-24T01:57:26.434Z,8.30
2022-11-24T01:57:43.184Z,8.30
2022-11-24T01:58:03.726Z,8.20
2022-11-24T01:58:19.296Z,8.20
2022-11-24T01:58:31.413Z,8.20
2022-11-24T01:58:43.279Z,8.20
2022-11-24T01:58:58.203Z,8.20
2022-11-24T01:59:11.493Z,8.20
2022-11-24T01:59:23.246Z,8.10
2022-11-24T01:59:34.985Z,8.10
2022-11-24T01:59:46.779Z,8.10
2022-11-24T02:00:04.049Z,8.10
2022-11-24T02:00:16.990Z,8.10
2022-11-24T02:00:28.741Z,8.10
2022-11-24T02:00:42.721Z,8.10
2022-11-24T02:00:54.464Z,8.10
2022-11-24T02:01:06.394Z,8.10
2022-11-24T02:01:18.367Z,8.10
2022-11-24T02:01:31.548Z,8.10
2022-11-24T02:01:43.546Z,8.10
2022-11-24T02:01:55.562Z,8.10
2022-11-24T02:02:07.523Z,8.10
2022-11-24T02:02:19.746Z,8.10
2022-11-24T02:02:31.750Z,8.10
2022-11-24T02:02:43.756Z,8.10
2022-11-24T02:02:55.747Z,8.00
2022-11-24T02:03:07.769Z,8.10
2022-11-24T02:03:23.309Z,8.00
2022-11-24T02:03:37.992Z,8.00
2022-11-24T02:03:49.886Z,8.00
2022-11-24T02:04:01.821Z,8.00
2022-11-24T02:04:14.645Z,8.00
2022-11-24T02:04:28.853Z,8.00
2022-11-24T02:04:41.266Z,8.00
2022-11-24T02:04:53.012Z,8.00
2022-11-24T02:05:12.856Z,8.00
2022-11-24T02:05:34.800Z,8.00
2022-11-24T02:05:50.314Z,8.00
2022-11-24T02:06:10.741Z,8.00
2022-11-24T02:06:29.512Z,8.00
2022-11-24T02:06:41.439Z,7.90
2022-11-24T02:06:53.343Z,7.90
2022-11-24T02:07:05.669Z,7.90
2022-11-24T02:07:17.623Z,7.90
2022-11-24T02:07:31.953Z,7.90
2022-11-24T02:07:43.785Z,7.90
2022-11-24T02:07:57.224Z,7.90
2022-11-24T02:08:47.130Z,7.90
2022-11-24T02:09:17.028Z,7.90
2022-11-24T02:09:43.272Z,7.90
2022-11-24T02:10:15.715Z,7.90
2022-11-24T02:10:27.610Z,7.80
2022-11-24T02:10:39.465Z,7.80
2022-11-24T02:10:51.374Z,7.80
2022-11-24T02:11:03.290Z,7.80
2022-11-24T02:11:15.094Z,7.80
2022-11-24T02:11:33.140Z,7.80
2022-11-24T02:11:45.376Z,7.90
2022-11-24T02:11:57.129Z,7.90
2022-11-24T02:12:09.184Z,7.90
2022-11-24T02:12:22.760Z,7.90
2022-11-24T02:12:34.646Z,7.90
2022-11-24T02:12:47.776Z,7.90
2022-11-24T02:13:00.320Z,7.90
2022-11-24T02:13:12.541Z,7.90
2022-11-24T02:13:24.363Z,7.90
2022-11-24T02:13:37.916Z,7.90
2022-11-24T02:13:50.416Z,7.90
2022-11-24T02:14:02.558Z,8.00
2022-11-24T02:14:15.782Z,7.90
2022-11-24T02:14:27.582Z,7.90
2022-11-24T02:14:39.504Z,7.90
2022-11-24T02:14:51.261Z,7.90
2022-11-24T02:15:03.250Z,8.00
2022-11-24T02:15:15.497Z,7.90
2022-11-24T02:15:27.393Z,7.90
2022-11-24T02:15:39.155Z,7.90
2022-11-24T02:15:51.279Z,7.90
2022-11-24T02:16:03.449Z,7.90
2022-11-24T02:16:15.505Z,8.00
2022-11-24T02:16:27.532Z,8.00
2022-11-24T02:16:39.321Z,8.00
2022-11-24T02:16:51.548Z,8.00
2022-11-24T02:17:03.491Z,8.00
2022-11-24T02:17:15.293Z,8.00
2022-11-24T02:17:27.031Z,8.00
2022-11-24T02:17:38.742Z,8.00
2022-11-24T02:17:50.529Z,8.00
2022-11-24T02:18:02.212Z,8.00
2022-11-24T02:18:13.933Z,8.00
2022-11-24T02:18:25.650Z,8.00
2022-11-24T02:18:38.477Z,8.00
2022-11-24T02:18:50.244Z,8.00
2022-11-24T02:19:05.130Z,8.00
2022-11-24T02:19:41.357Z,8.00
2022-11-24T02:19:57.782Z,8.00
2022-11-24T02:20:10.528Z,8.00
2022-11-24T02:20:22.271Z,8.00
2022-11-24T02:20:34.157Z,7.90
2022-11-24T02:20:46.034Z,7.90
2022-11-24T02:20:57.956Z,7.80
2022-11-24T02:21:11.731Z,7.80
2022-11-24T02:21:23.992Z,7.80
2022-11-24T02:21:35.688Z,7.80
2022-11-24T02:21:47.705Z,7.80
2022-11-24T02:21:59.521Z,7.80
2022-11-24T02:22:47.675Z,7.80
2022-11-24T02:23:24.401Z,7.80
2022-11-24T02:23:39.089Z,7.70
2022-11-24T02:24:14.739Z,7.70
2022-11-24T02:25:01.719Z,7.70
2022-11-24T02:25:39.046Z,7.70
2022-11-24T02:25:56.661Z,7.70
2022-11-24T02:26:38.709Z,7.70
2022-11-24T02:26:52.217Z,7.70
2022-11-24T02:27:04.051Z,7.80
2022-11-24T02:27:15.904Z,7.80
2022-11-24T02:27:27.644Z,7.90
2022-11-24T02:27:39.536Z,7.90
2022-11-24T02:27:54.019Z,7.90
2022-11-24T02:28:08.699Z,7.90
2022-11-24T02:28:22.565Z,7.90
2022-11-24T02:28:34.466Z,7.90
2022-11-24T02:28:46.234Z,7.90
2022-11-24T02:28:57.938Z,7.90
2022-11-24T02:29:11.569Z,7.80
2022-11-24T02:29:23.437Z,7.80
2022-11-24T02:29:35.161Z,7.80
2022-11-24T02:29:46.907Z,7.80
2022-11-24T02:29:59.142Z,7.90
2022-11-24T02:30:11.375Z,7.80
2022-11-24T02:30:23.122Z,7.90
2022-11-24T02:30:35.359Z,7.90
2022-11-24T02:30:47.246Z,7.90
2022-11-24T02:30:59.903Z,7.90
2022-11-24T02:31:11.768Z,7.90
2022-11-24T02:31:23.565Z,7.90
2022-11-24T02:31:35.529Z,7.90
2022-11-24T02:31:54.517Z,7.80
2022-11-24T02:32:07.047Z,7.80
2022-11-24T02:32:18.937Z,7.90
2022-11-24T02:32:31.361Z,7.80
2022-11-24T02:32:43.287Z,7.80
2022-11-24T02:32:55.193Z,7.90
2022-11-24T02:33:06.953Z,7.90
2022-11-24T02:33:18.756Z,7.90
2022-11-24T02:33:30.788Z,7.90
2022-11-24T02:33:42.798Z,7.90
2022-11-24T02:33:54.513Z,7.90
2022-11-24T02:34:06.336Z,7.90
2022-11-24T02:34:18.100Z,7.90
2022-11-24T02:34:30.157Z,8.00
2022-11-24T02:34:41.936Z,8.00
2022-11-24T02:35:04.508Z,7.90
2022-11-24T02:35:16.234Z,7.90
2022-11-24T02:35:28.108Z,7.90
2022-11-24T02:35:39.867Z,7.90
2022-11-24T02:35:52.748Z,7.90
2022-11-24T02:36:04.853Z,7.90
2022-11-24T02:36:16.582Z,7.90
2022-11-24T02:36:28.360Z,7.80
2022-11-24T02:36:40.183Z,7.80
2022-11-24T02:36:52.022Z,7.80
2022-11-24T02:37:03.964Z,7.80
2022-11-24T02:37:15.732Z,7.80
2022-11-24T02:37:27.460Z,7.80
2022-11-24T02:37:39.220Z,7.80
2022-11-24T02:37:51.158Z,7.80
2022-11-24T02:38:03.057Z,7.80
2022-11-24T02:38:15.032Z,7.80
2022-11-24T02:38:34.248Z,7.80
2022-11-24T02:38:46.153Z,7.80
2022-11-24T02:38:57.950Z,7.80
2022-11-24T02:39:13.605Z,7.80
2022-11-24T02:39:25.326Z,7.80
2022-11-24T02:39:37.109Z,7.80
2022-11-24T02:39:48.983Z,7.80
2022-11-24T02:40:00.671Z,7.80
2022-11-24T02:40:16.734Z,7.80
2022-11-24T02:40:28.872Z,7.80
2022-11-24T02:40:43.055Z,7.80
2022-11-24T02:40:54.919Z,7.80
2022-11-24T02:41:08.950Z,7.80
2022-11-24T02:41:21.938Z,7.70
2022-11-24T02:41:33.703Z,7.70
2022-11-24T02:41:50.557Z,7.70
2022-11-24T02:42:06.533Z,7.80
2022-11-24T02:42:18.268Z,7.80
2022-11-24T02:42:33.472Z,7.80
2022-11-24T02:42:45.242Z,7.80
2022-11-24T02:43:05.060Z,7.80
2022-11-24T02:43:19.987Z,7.80
2022-11-24T02:43:35.840Z,7.80
2022-11-24T02:43:52.464Z,7.80
2022-11-24T02:44:04.361Z,7.80
2022-11-24T02:44:16.279Z,7.80
2022-11-24T02:44:32.738Z,7.80
2022-11-24T02:44:48.740Z,7.80
2022-11-24T02:45:00.919Z,7.90
2022-11-24T02:45:12.869Z,7.90
2022-11-24T02:45:24.945Z,7.90
2022-11-24T02:45:36.844Z,7.90
2022-11-24T02:45:48.622Z,7.90
2022-11-24T02:46:00.562Z,7.90
2022-11-24T02:46:12.600Z,7.90
2022-11-24T02:46:24.578Z,7.90
2022-11-24T02:46:36.377Z,7.90
2022-11-24T02:46:48.141Z,7.90
2022-11-24T02:47:08.380Z,7.90
2022-11-24T02:47:20.091Z,7.90
2022-11-24T02:47:31.986Z,7.90
2022-11-24T02:47:44.147Z,7.90
2022-11-24T02:47:55.887Z,7.80
2022-11-24T02:48:07.851Z,7.80
2022-11-24T02:48:19.566Z,7.90
2022-11-24T02:48:31.313Z,7.90
2022-11-24T02:48:43.217Z,7.80
2022-11-24T02:48:55.258Z,7.90
2022-11-24T02:49:07.004Z,7.90
2022-11-24T02:49:18.747Z,7.80
2022-11-24T02:49:31.279Z,7.80
2022-11-24T02:49:43.098Z,7.80
2022-11-24T02:49:54.859Z,7.80
2022-11-24T02:50:07.141Z,7.80
2022-11-24T02:50:18.967Z,7.80
2022-11-24T02:50:30.712Z,7.80
2022-11-24T02:50:42.423Z,7.80
2022-11-24T02:50:54.392Z,7.80
2022-11-24T02:51:06.251Z,7.80
2022-11-24T02:51:18.287Z,7.80
2022-11-24T02:51:30.016Z,7.90
2022-11-24T02:51:41.884Z,7.80
2022-11-24T02:51:53.685Z,7.90
2022-11-24T02:52:05.802Z,7.80
2022-11-24T02:52:17.714Z,7.90
2022-11-24T02:52:29.444Z,7.80
2022-11-24T02:52:41.148Z,7.80
2022-11-24T02:52:52.935Z,7.90
2022-11-24T02:53:04.688Z,7.80
2022-11-24T02:53:16.579Z,7.80
2022-11-24T02:53:28.489Z,7.80
2022-11-24T02:53:40.367Z,7.90
2022-11-24T02:53:52.076Z,7.80
2022-11-24T02:54:03.916Z,7.80
2022-11-24T02:54:15.714Z,7.80
2022-11-24T02:54:27.667Z,7.80
2022-11-24T02:54:39.598Z,7.80
2022-11-24T02:54:51.486Z,7.80
2022-11-24T02:55:04.101Z,7.80
2022-11-24T02:55:16.008Z,7.80
2022-11-24T02:55:27.893Z,7.80
2022-11-24T02:55:39.613Z,7.80
2022-11-24T02:55:51.433Z,7.80
2022-11-24T02:56:03.290Z,7.80
2022-11-24T02:56:15.036Z,7.80
2022-11-24T02:56:27.337Z,7.80
2022-11-24T02:56:39.113Z,7.80
2022-11-24T02:56:51.436Z,7.80
2022-11-24T02:57:03.328Z,7.80